createdAt,value
2018-09-01T00:01:44.233Z,18.50
2018-09-01T00:03:47.150Z,18.50
2018-09-01T00:05:50.062Z,18.50
2018-09-01T00:07:53.010Z,18.50
2018-09-01T00:09:55.929Z,18.50
2018-09-01T00:11:58.858Z,18.40
2018-09-01T00:14:01.913Z,18.40
2018-09-01T00:16:06.334Z,18.30
2018-09-01T00:18:10.106Z,18.30
2018-09-01T00:20:13.076Z,18.20
2018-09-01T00:22:16.096Z,18.20
2018-09-01T00:24:19.802Z,18.20
2018-09-01T00:26:22.783Z,18.10
2018-09-01T00:28:26.466Z,18.00
2018-09-01T00:30:29.384Z,18.00
2018-09-01T00:32:32.347Z,18.00
2018-09-01T00:34:36.018Z,17.90
2018-09-01T00:36:38.993Z,17.90
2018-09-01T00:38:59.130Z,17.90
2018-09-01T00:41:02.049Z,17.80
2018-09-01T00:43:05.077Z,17.70
2018-09-01T00:45:08.891Z,17.60
2018-09-01T00:47:12.587Z,17.50
2018-09-01T00:49:15.510Z,17.50
2018-09-01T00:51:18.462Z,17.50
2018-09-01T00:53:21.374Z,17.40
2018-09-01T00:55:24.322Z,17.40
2018-09-01T00:57:27.288Z,17.40
2018-09-01T00:59:30.983Z,17.30
2018-09-01T01:01:34.791Z,17.20
2018-09-01T01:03:38.517Z,17.20
2018-09-01T01:05:41.450Z,17.20
2018-09-01T01:07:44.366Z,17.20
2018-09-01T01:09:48.205Z,17.10
2018-09-01T01:11:51.126Z,17.10
2018-09-01T01:13:54.813Z,17.00
2018-09-01T01:15:57.688Z,17.00
2018-09-01T01:18:02.162Z,17.00
2018-09-01T01:20:05.077Z,16.90
2018-09-01T01:22:08.211Z,16.90
2018-09-01T01:24:11.254Z,16.90
2018-09-01T01:26:14.224Z,16.80
2018-09-01T01:28:17.218Z,16.80
2018-09-01T01:30:21.621Z,16.70
2018-09-01T01:32:24.501Z,16.70
2018-09-01T01:34:27.499Z,16.70
2018-09-01T01:36:30.377Z,16.70
2018-09-01T01:38:34.764Z,16.60
2018-09-01T01:40:37.779Z,16.60
2018-09-01T01:42:40.650Z,16.60
2018-09-01T01:44:43.516Z,16.60
2018-09-01T01:46:46.481Z,16.50
2018-09-01T01:48:49.377Z,16.50
2018-09-01T01:50:52.387Z,16.50
2018-09-01T01:52:55.277Z,16.50
2018-09-01T01:54:58.916Z,16.40
2018-09-01T01:57:01.789Z,16.40
2018-09-01T01:59:05.450Z,16.40
2018-09-01T02:01:08.321Z,16.30
2018-09-01T02:03:11.242Z,16.30
2018-09-01T02:05:14.906Z,16.30
2018-09-01T02:07:19.309Z,16.30
2018-09-01T02:09:22.186Z,16.20
2018-09-01T02:11:25.313Z,16.20
2018-09-01T02:13:28.980Z,16.20
2018-09-01T02:15:31.864Z,16.20
2018-09-01T02:17:36.326Z,16.20
2018-09-01T02:19:40.081Z,16.20
2018-09-01T02:21:42.970Z,16.20
2018-09-01T02:23:45.882Z,16.20
2018-09-01T02:25:49.525Z,16.20
2018-09-01T02:27:52.408Z,16.20
2018-09-01T02:29:55.299Z,16.20
2018-09-01T02:31:58.233Z,16.20
2018-09-01T02:34:01.215Z,16.20
2018-09-01T02:36:04.883Z,16.30
2018-09-01T02:38:08.533Z,16.20
2018-09-01T02:40:11.417Z,16.20
2018-09-01T02:42:14.364Z,16.20
2018-09-01T02:44:17.322Z,16.20
2018-09-01T02:46:20.209Z,16.20
2018-09-01T02:48:23.873Z,16.20
2018-09-01T02:50:26.762Z,16.20
2018-09-01T02:52:29.654Z,16.20
2018-09-01T02:54:32.745Z,16.20
2018-09-01T02:56:37.129Z,16.20
2018-09-01T02:58:40.037Z,16.20
2018-09-01T03:00:43.021Z,16.20
2018-09-01T03:02:45.905Z,16.20
2018-09-01T03:04:49.557Z,16.30
2018-09-01T03:06:52.493Z,16.20
2018-09-01T03:08:55.366Z,16.20
2018-09-01T03:10:58.260Z,16.30
2018-09-01T03:13:01.341Z,16.20
2018-09-01T03:15:04.209Z,16.20
2018-09-01T03:17:07.081Z,16.20
2018-09-01T03:19:09.986Z,16.20
2018-09-01T03:21:13.677Z,16.30
2018-09-01T03:23:16.561Z,16.20
2018-09-01T03:25:20.253Z,16.20
2018-09-01T03:27:23.145Z,16.20
2018-09-01T03:29:26.121Z,16.20
2018-09-01T03:31:29.015Z,16.20
2018-09-01T03:33:32.661Z,16.20
2018-09-01T03:35:35.588Z,16.10
2018-09-01T03:37:40.002Z,16.10
2018-09-01T03:39:42.868Z,16.10
2018-09-01T03:41:45.744Z,16.00
2018-09-01T03:43:48.736Z,16.00
2018-09-01T03:45:51.605Z,15.90
2018-09-01T03:47:54.496Z,15.90
2018-09-01T03:49:57.465Z,15.90
2018-09-01T03:52:00.373Z,15.90
2018-09-01T03:54:03.242Z,15.80
2018-09-01T03:56:06.149Z,15.80
2018-09-01T03:58:09.816Z,15.70
2018-09-01T04:00:12.713Z,15.70
2018-09-01T04:02:15.693Z,15.70
2018-09-01T04:04:18.573Z,15.70
2018-09-01T04:06:21.552Z,15.60
2018-09-01T04:08:24.502Z,15.60
2018-09-01T04:10:27.417Z,15.60
2018-09-01T04:12:30.297Z,15.60
2018-09-01T04:14:33.217Z,15.50
2018-09-01T04:16:36.845Z,15.50
2018-09-01T04:18:39.768Z,15.40
2018-09-01T04:20:42.656Z,15.50
2018-09-01T04:22:46.342Z,15.40
2018-09-01T04:24:49.334Z,15.40
2018-09-01T04:26:52.252Z,15.30
2018-09-01T04:28:55.157Z,15.30
2018-09-01T04:30:58.045Z,15.30
2018-09-01T04:33:01.046Z,15.30
2018-09-01T04:35:03.926Z,15.20
2018-09-01T04:37:06.812Z,15.20
2018-09-01T04:39:09.720Z,15.20
2018-09-01T04:41:12.581Z,15.10
2018-09-01T04:43:16.228Z,15.10
2018-09-01T04:45:19.340Z,15.10
2018-09-01T04:47:22.221Z,15.10
2018-09-01T04:49:25.118Z,15.10
2018-09-01T04:51:28.104Z,15.10
2018-09-01T04:53:31.201Z,15.10
2018-09-01T04:55:34.856Z,15.10
2018-09-01T04:57:37.865Z,15.00
2018-09-01T04:59:40.853Z,15.00
2018-09-01T05:01:43.729Z,15.00
2018-09-01T05:03:46.713Z,15.00
2018-09-01T05:05:49.633Z,15.00
2018-09-01T05:07:52.490Z,15.00
2018-09-01T05:09:55.369Z,15.00
2018-09-01T05:11:58.336Z,15.00
2018-09-01T05:14:01.229Z,15.00
2018-09-01T05:16:04.320Z,14.90
2018-09-01T05:18:07.965Z,14.90
2018-09-01T05:20:10.897Z,14.90
2018-09-01T05:22:14.588Z,14.90
2018-09-01T05:24:17.488Z,14.90
2018-09-01T05:26:21.125Z,14.90
2018-09-01T05:28:24.021Z,14.90
2018-09-01T05:30:26.932Z,14.90
2018-09-01T05:32:31.365Z,14.90
2018-09-01T05:34:34.245Z,14.90
2018-09-01T05:36:37.923Z,14.90
2018-09-01T05:38:40.769Z,14.90
2018-09-01T05:40:43.674Z,14.90
2018-09-01T05:42:46.615Z,14.90
2018-09-01T05:44:49.486Z,14.90
2018-09-01T05:46:52.384Z,14.80
2018-09-01T05:48:55.277Z,14.80
2018-09-01T05:50:58.166Z,14.80
2018-09-01T05:53:01.062Z,14.80
2018-09-01T05:55:03.961Z,14.80
2018-09-01T05:57:06.833Z,14.80
2018-09-01T05:59:09.928Z,14.80
2018-09-01T06:01:13.582Z,14.80
2018-09-01T06:03:16.461Z,14.80
2018-09-01T06:05:19.381Z,14.80
2018-09-01T06:07:22.258Z,14.90
2018-09-01T06:09:25.142Z,14.90
2018-09-01T06:11:28.063Z,14.90
2018-09-01T06:13:31.698Z,15.00
2018-09-01T06:15:34.601Z,14.90
2018-09-01T06:17:37.687Z,15.00
2018-09-01T06:19:41.279Z,15.10
2018-09-01T06:21:44.170Z,15.10
2018-09-01T06:23:47.200Z,15.10
2018-09-01T06:25:51.545Z,15.10
2018-09-01T06:27:54.433Z,15.10
2018-09-01T06:29:57.359Z,15.20
2018-09-01T06:32:00.993Z,15.30
2018-09-01T06:34:03.882Z,15.20
2018-09-01T06:36:06.812Z,15.30
2018-09-01T06:38:09.664Z,15.30
2018-09-01T06:40:12.548Z,15.40
2018-09-01T06:42:15.650Z,15.40
2018-09-01T06:44:18.514Z,15.40
2018-09-01T06:46:21.388Z,15.40
2018-09-01T06:48:24.388Z,15.40
2018-09-01T06:50:27.361Z,15.50
2018-09-01T06:52:30.241Z,15.50
2018-09-01T06:54:33.157Z,15.60
2018-09-01T06:56:36.825Z,15.60
2018-09-01T06:58:39.690Z,15.60
2018-09-01T07:00:42.590Z,15.60
2018-09-01T07:02:45.569Z,15.70
2018-09-01T07:04:48.556Z,15.00
2018-09-01T07:06:51.578Z,15.80
2018-09-01T07:08:55.238Z,15.90
2018-09-01T07:10:58.101Z,15.90
2018-09-01T07:13:01.825Z,15.90
2018-09-01T07:15:04.809Z,15.90
2018-09-01T07:17:09.358Z,16.10
2018-09-01T07:19:13.021Z,16.10
2018-09-01T07:21:15.901Z,16.10
2018-09-01T07:23:18.897Z,16.20
2018-09-01T07:25:22.688Z,16.30
2018-09-01T07:27:25.707Z,16.20
2018-09-01T07:29:29.364Z,16.40
2018-09-01T07:31:32.563Z,16.40
2018-09-01T07:33:35.156Z,16.50
2018-09-01T07:35:39.528Z,16.50
2018-09-01T07:37:42.425Z,16.60
2018-09-01T07:39:45.308Z,16.60
2018-09-01T07:41:48.206Z,16.70
2018-09-01T07:43:52.040Z,16.80
2018-09-01T07:45:54.868Z,16.80
2018-09-01T07:47:57.749Z,16.80
2018-09-01T07:50:00.867Z,16.90
2018-09-01T07:52:03.826Z,16.90
2018-09-01T07:54:06.842Z,17.00
2018-09-01T07:56:10.553Z,17.10
2018-09-01T07:58:13.384Z,17.10
2018-09-01T08:00:16.266Z,17.20
2018-09-01T08:02:19.184Z,17.20
2018-09-01T08:04:22.985Z,17.30
2018-09-01T08:06:26.652Z,17.40
2018-09-01T08:08:29.645Z,17.30
2018-09-01T08:10:33.309Z,17.50
2018-09-01T08:12:36.184Z,17.50
2018-09-01T08:14:39.851Z,17.50
2018-09-01T08:16:43.865Z,17.60
2018-09-01T08:18:46.734Z,17.60
2018-09-01T08:20:49.659Z,17.70
2018-09-01T08:22:52.541Z,17.70
2018-09-01T08:24:55.638Z,17.80
2018-09-01T08:26:58.814Z,17.80
2018-09-01T08:29:01.701Z,17.90
2018-09-01T08:31:05.063Z,17.90
2018-09-01T08:33:08.094Z,18.00
2018-09-01T08:35:11.076Z,18.00
2018-09-01T08:37:13.937Z,18.10
2018-09-01T08:39:16.846Z,18.10
2018-09-01T08:41:19.812Z,18.10
2018-09-01T08:43:22.682Z,18.20
2018-09-01T08:45:25.612Z,18.30
2018-09-01T08:47:28.475Z,18.30
2018-09-01T08:49:32.125Z,18.40
2018-09-01T08:51:35.146Z,18.40
2018-09-01T08:53:38.013Z,18.50
2018-09-01T08:55:40.896Z,18.50
2018-09-01T08:57:43.822Z,18.60
2018-09-01T08:59:47.485Z,18.60
2018-09-01T09:01:50.353Z,18.60
2018-09-01T09:03:53.246Z,18.70
2018-09-01T09:05:56.121Z,18.70
2018-09-01T09:07:59.006Z,18.80
2018-09-01T09:10:03.530Z,18.80
2018-09-01T09:12:06.504Z,18.80
2018-09-01T09:14:09.404Z,18.90
2018-09-01T09:16:12.309Z,18.90
2018-09-01T09:18:15.928Z,19.00
2018-09-01T09:20:18.800Z,18.90
2018-09-01T09:22:21.833Z,19.00
2018-09-01T09:24:24.817Z,19.00
2018-09-01T09:26:27.802Z,19.10
2018-09-01T09:28:32.325Z,19.10
2018-09-01T09:30:36.706Z,19.20
2018-09-01T09:32:39.598Z,19.20
2018-09-01T09:34:42.503Z,19.20
2018-09-01T09:36:45.485Z,19.30
2018-09-01T09:38:48.464Z,19.30
2018-09-01T09:40:51.357Z,19.30
2018-09-01T09:42:55.008Z,19.40
2018-09-01T09:44:57.934Z,19.40
2018-09-01T09:47:02.333Z,19.50
2018-09-01T09:49:05.218Z,19.50
2018-09-01T09:51:08.093Z,19.50
2018-09-01T09:53:11.009Z,19.60
2018-09-01T09:55:13.870Z,19.60
2018-09-01T09:57:16.773Z,19.60
2018-09-01T09:59:20.447Z,19.70
2018-09-01T10:01:23.341Z,19.70
2018-09-01T10:03:27.032Z,19.80
2018-09-01T10:05:30.014Z,19.80
2018-09-01T10:07:32.864Z,19.90
2018-09-01T10:09:35.866Z,19.90
2018-09-01T10:11:40.288Z,19.90
2018-09-01T10:13:43.164Z,19.90
2018-09-01T10:15:46.071Z,20.00
2018-09-01T10:17:49.034Z,20.00
2018-09-01T10:19:53.455Z,20.10
2018-09-01T10:21:56.325Z,20.10
2018-09-01T10:24:00.887Z,20.10
2018-09-01T10:26:04.565Z,20.20
2018-09-01T10:28:07.537Z,20.10
2018-09-01T10:30:11.933Z,20.20
2018-09-01T10:32:14.825Z,20.20
2018-09-01T10:34:19.236Z,20.20
2018-09-01T10:36:22.125Z,20.20
2018-09-01T10:38:26.510Z,20.20
2018-09-01T10:40:29.441Z,20.20
2018-09-01T10:42:33.109Z,20.30
2018-09-01T10:44:36.001Z,20.30
2018-09-01T10:46:38.941Z,20.30
2018-09-01T10:48:41.838Z,20.30
2018-09-01T10:50:44.718Z,20.30
2018-09-01T10:52:47.631Z,20.40
2018-09-01T10:54:50.521Z,20.30
2018-09-01T10:56:54.225Z,20.40
2018-09-01T10:58:58.642Z,20.40
2018-09-01T11:01:01.626Z,20.40
2018-09-01T11:03:05.273Z,20.40
2018-09-01T11:05:08.191Z,20.40
2018-09-01T11:07:11.173Z,20.50
2018-09-01T11:09:15.549Z,20.60
2018-09-01T11:11:18.421Z,20.60
2018-09-01T11:13:21.349Z,20.70
2018-09-01T11:15:24.371Z,20.70
2018-09-01T11:17:28.017Z,20.90
2018-09-01T11:19:31.015Z,20.90
2018-09-01T11:21:34.009Z,20.90
2018-09-01T11:23:38.410Z,21.00
2018-09-01T11:25:41.357Z,21.00
2018-09-01T11:27:44.311Z,21.00
2018-09-01T11:29:47.093Z,21.00
2018-09-01T11:31:50.754Z,21.10
2018-09-01T11:33:53.634Z,21.00
2018-09-01T11:35:56.676Z,21.10
2018-09-01T11:38:00.324Z,21.20
2018-09-01T11:40:03.245Z,21.20
2018-09-01T11:42:06.901Z,21.30
2018-09-01T11:44:09.797Z,21.30
2018-09-01T11:46:13.464Z,21.40
2018-09-01T11:48:16.333Z,21.30
2018-09-01T11:50:19.347Z,21.40
2018-09-01T11:52:22.236Z,21.40
2018-09-01T11:54:25.247Z,21.40
2018-09-01T11:56:28.936Z,21.40
2018-09-01T11:58:32.213Z,21.40
2018-09-01T12:00:35.119Z,21.50
2018-09-01T12:02:38.782Z,21.50
2018-09-01T12:04:41.661Z,21.50
2018-09-01T12:06:45.334Z,21.60
2018-09-01T12:08:48.416Z,21.60
2018-09-01T12:10:52.720Z,21.70
2018-09-01T12:12:55.717Z,21.70
2018-09-01T12:14:59.180Z,21.70
2018-09-01T12:17:02.453Z,21.80
2018-09-01T12:19:06.644Z,21.80
2018-09-01T12:21:09.660Z,21.80
2018-09-01T12:23:12.851Z,21.90
2018-09-01T12:25:16.038Z,21.90
2018-09-01T12:27:18.937Z,21.90
2018-09-01T12:29:22.154Z,22.00
2018-09-01T12:31:25.195Z,22.10
2018-09-01T12:33:28.338Z,22.10
2018-09-01T12:35:31.393Z,22.10
2018-09-01T12:37:34.548Z,22.20
2018-09-01T12:39:38.044Z,22.20
2018-09-01T12:41:42.054Z,22.20
2018-09-01T12:43:45.955Z,22.30
2018-09-01T12:45:49.084Z,22.20
2018-09-01T12:47:53.008Z,22.30
2018-09-01T12:49:55.973Z,22.30
2018-09-01T12:51:59.013Z,22.30
2018-09-01T12:54:02.679Z,22.40
2018-09-01T12:56:05.549Z,22.40
2018-09-01T12:58:08.452Z,22.40
2018-09-01T13:00:12.592Z,22.50
2018-09-01T13:02:15.486Z,22.50
2018-09-01T13:04:18.420Z,22.50
2018-09-01T13:06:21.285Z,22.60
2018-09-01T13:08:24.149Z,22.60
2018-09-01T13:10:27.367Z,22.70
2018-09-01T13:12:30.331Z,22.80
2018-09-01T13:14:33.417Z,22.80
2018-09-01T13:16:36.810Z,22.90
2018-09-01T13:18:39.702Z,22.90
2018-09-01T13:20:42.788Z,23.00
2018-09-01T13:22:45.660Z,23.10
2018-09-01T13:24:48.545Z,23.20
2018-09-01T13:26:51.545Z,23.30
2018-09-01T13:28:54.690Z,23.30
2018-09-01T13:30:57.605Z,23.40
2018-09-01T13:33:00.545Z,23.40
2018-09-01T13:35:03.839Z,23.40
2018-09-01T13:37:07.209Z,23.50
2018-09-01T13:39:10.144Z,23.50
2018-09-01T13:41:13.229Z,23.50
2018-09-01T13:43:16.115Z,23.60
2018-09-01T13:45:19.340Z,23.70
2018-09-01T13:47:22.638Z,23.80
2018-09-01T13:49:25.536Z,23.80
2018-09-01T13:51:28.465Z,24.00
2018-09-01T13:53:31.636Z,24.00
2018-09-01T13:55:34.781Z,24.00
2018-09-01T13:57:37.662Z,24.00
2018-09-01T13:59:41.070Z,24.00
2018-09-01T14:01:43.927Z,24.10
2018-09-01T14:03:47.010Z,24.10
2018-09-01T14:05:50.646Z,24.10
2018-09-01T14:07:53.666Z,24.10
2018-09-01T14:09:56.492Z,24.10
2018-09-01T14:11:59.448Z,24.20
2018-09-01T14:14:03.251Z,24.30
2018-09-01T14:16:06.924Z,24.30
2018-09-01T14:18:11.024Z,24.40
2018-09-01T14:20:13.939Z,24.40
2018-09-01T14:22:17.007Z,24.40
2018-09-01T14:24:20.678Z,24.50
2018-09-01T14:26:23.555Z,24.50
2018-09-01T14:28:26.421Z,24.50
2018-09-01T14:30:29.433Z,24.50
2018-09-01T14:32:33.821Z,24.40
2018-09-01T14:34:36.697Z,24.40
2018-09-01T14:36:39.599Z,24.40
2018-09-01T14:38:42.456Z,24.40
2018-09-01T14:40:45.374Z,24.30
2018-09-01T14:42:48.478Z,24.30
2018-09-01T14:44:52.155Z,24.20
2018-09-01T14:46:55.073Z,24.20
2018-09-01T14:48:59.453Z,24.10
2018-09-01T14:51:02.328Z,24.10
2018-09-01T14:53:05.245Z,24.20
2018-09-01T14:55:08.102Z,24.10
2018-09-01T14:57:10.964Z,24.10
2018-09-01T14:59:13.932Z,24.10
2018-09-01T15:01:16.942Z,24.10
2018-09-01T15:03:19.817Z,24.10
2018-09-01T15:05:22.741Z,24.10
2018-09-01T15:07:26.512Z,24.10
2018-09-01T15:09:29.381Z,24.10
2018-09-01T15:11:32.257Z,24.10
2018-09-01T15:13:35.181Z,24.10
2018-09-01T15:15:38.820Z,24.10
2018-09-01T15:17:41.730Z,24.10
2018-09-01T15:19:44.628Z,24.10
2018-09-01T15:21:48.269Z,24.10
2018-09-01T15:23:51.141Z,24.10
2018-09-01T15:25:54.036Z,24.10
2018-09-01T15:27:56.975Z,24.10
2018-09-01T15:30:00.704Z,24.10
2018-09-01T15:32:03.561Z,24.00
2018-09-01T15:34:07.190Z,24.00
2018-09-01T15:36:10.173Z,24.00
2018-09-01T15:38:13.197Z,24.00
2018-09-01T15:40:16.072Z,24.00
2018-09-01T15:42:18.937Z,24.00
2018-09-01T15:44:21.841Z,24.00
2018-09-01T15:46:24.730Z,24.00
2018-09-01T15:48:27.701Z,24.00
2018-09-01T15:50:30.629Z,24.00
2018-09-01T15:52:33.560Z,23.90
2018-09-01T15:54:36.433Z,23.90
2018-09-01T15:56:39.325Z,23.90
2018-09-01T15:58:42.196Z,23.90
2018-09-01T16:00:45.065Z,23.90
2018-09-01T16:02:48.083Z,23.80
2018-09-01T16:04:50.946Z,23.80
2018-09-01T16:06:55.374Z,23.80
2018-09-01T16:08:58.269Z,23.80
2018-09-01T16:11:01.915Z,23.80
2018-09-01T16:13:04.824Z,23.70
2018-09-01T16:15:07.841Z,23.80
2018-09-01T16:17:11.493Z,23.80
2018-09-01T16:19:14.393Z,23.70
2018-09-01T16:21:17.484Z,23.70
2018-09-01T16:23:20.472Z,23.70
2018-09-01T16:25:23.445Z,23.70
2018-09-01T16:27:26.772Z,23.70
2018-09-01T16:29:29.702Z,23.70
2018-09-01T16:31:32.600Z,23.70
2018-09-01T16:33:35.580Z,23.70
2018-09-01T16:35:38.471Z,23.70
2018-09-01T16:37:41.337Z,23.70
2018-09-01T16:39:45.741Z,23.70
2018-09-01T16:41:48.640Z,23.70
2018-09-01T16:43:51.517Z,23.70
2018-09-01T16:45:54.605Z,23.70
2018-09-01T16:47:57.481Z,23.70
2018-09-01T16:50:00.367Z,23.70
2018-09-01T16:52:03.460Z,23.70
2018-09-01T16:54:06.328Z,23.70
2018-09-01T16:58:13.415Z,23.60
2018-09-01T17:00:16.288Z,23.60
2018-09-01T17:02:19.185Z,23.70
2018-09-01T17:04:22.172Z,23.70
2018-09-01T17:06:26.566Z,23.60
2018-09-01T17:08:29.440Z,23.60
2018-09-01T17:10:32.346Z,23.60
2018-09-01T17:12:35.212Z,23.60
2018-09-01T17:14:38.085Z,23.60
2018-09-01T17:16:41.074Z,23.60
2018-09-01T17:18:44.761Z,23.60
2018-09-01T17:20:47.675Z,23.50
2018-09-01T17:22:50.767Z,23.50
2018-09-01T17:24:53.629Z,23.50
2018-09-01T17:26:56.505Z,23.50
2018-09-01T17:28:59.616Z,23.50
2018-09-01T17:31:02.497Z,23.40
2018-09-01T17:33:05.370Z,23.50
2018-09-01T17:35:08.264Z,23.50
2018-09-01T17:37:11.904Z,23.40
2018-09-01T17:39:14.775Z,23.40
2018-09-01T17:41:18.433Z,23.40
2018-09-01T17:43:21.299Z,23.30
2018-09-01T17:45:24.175Z,23.30
2018-09-01T17:47:27.082Z,23.30
2018-09-01T17:49:30.011Z,23.30
2018-09-01T17:51:33.673Z,23.10
2018-09-01T17:53:37.337Z,23.10
2018-09-01T17:55:40.218Z,23.10
2018-09-01T17:57:43.121Z,23.10
2018-09-01T17:59:46.098Z,23.00
2018-09-01T18:01:48.957Z,23.00
2018-09-01T18:03:51.840Z,23.00
2018-09-01T18:05:54.837Z,23.00
2018-09-01T18:07:57.712Z,22.90
2018-09-01T18:10:00.585Z,22.90
2018-09-01T18:12:03.473Z,22.80
2018-09-01T18:14:06.357Z,22.80
2018-09-01T18:16:09.232Z,22.70
2018-09-01T18:18:12.133Z,22.70
2018-09-01T18:20:15.006Z,22.60
2018-09-01T18:22:19.525Z,22.50
2018-09-01T18:24:22.421Z,22.50
2018-09-01T18:26:26.108Z,22.40
2018-09-01T18:28:28.989Z,22.40
2018-09-01T18:30:31.961Z,22.40
2018-09-01T18:32:34.825Z,22.40
2018-09-01T18:34:37.731Z,22.30
2018-09-01T18:36:40.724Z,22.20
2018-09-01T18:38:44.413Z,22.10
2018-09-01T18:40:47.409Z,22.10
2018-09-01T18:42:50.379Z,22.10
2018-09-01T18:44:53.256Z,22.00
2018-09-01T18:46:56.142Z,22.00
2018-09-01T18:48:59.057Z,21.90
2018-09-01T18:51:02.685Z,21.80
2018-09-01T18:53:05.562Z,21.80
2018-09-01T18:55:08.454Z,21.80
2018-09-01T18:57:11.330Z,21.70
2018-09-01T18:59:14.208Z,21.70
2018-09-01T19:01:17.109Z,21.60
2018-09-01T19:03:19.976Z,21.60
2018-09-01T19:05:22.901Z,21.50
2018-09-01T19:07:26.582Z,21.50
2018-09-01T19:09:29.566Z,21.50
2018-09-01T19:11:32.429Z,21.40
2018-09-01T19:13:35.445Z,21.40
2018-09-01T19:15:38.318Z,21.40
2018-09-01T19:17:41.210Z,21.30
2018-09-01T19:19:44.895Z,21.30
2018-09-01T19:21:47.769Z,21.20
2018-09-01T19:23:51.676Z,21.20
2018-09-01T19:25:55.350Z,21.10
2018-09-01T19:27:59.005Z,21.10
2018-09-01T19:30:02.653Z,21.00
2018-09-01T19:32:05.632Z,21.00
2018-09-01T19:34:08.535Z,21.00
2018-09-01T19:36:11.401Z,21.00
2018-09-01T19:38:14.333Z,20.90
2018-09-01T19:40:17.259Z,20.90
2018-09-01T19:42:20.278Z,20.90
2018-09-01T19:44:23.185Z,20.90
2018-09-01T19:46:26.165Z,20.80
2018-09-01T19:48:29.789Z,20.80
2018-09-01T19:50:32.697Z,20.80
2018-09-01T19:52:35.575Z,20.80
2018-09-01T19:54:38.457Z,20.70
2018-09-01T19:56:41.365Z,20.70
2018-09-01T19:58:45.004Z,20.70
2018-09-01T20:00:47.895Z,20.60
2018-09-01T20:02:50.821Z,20.60
2018-09-01T20:04:53.719Z,20.60
2018-09-01T20:06:57.336Z,20.60
2018-09-01T20:09:00.222Z,20.50
2018-09-01T20:11:03.097Z,20.60
2018-09-01T20:13:06.035Z,20.50
2018-09-01T20:15:10.437Z,20.40
2018-09-01T20:17:13.322Z,20.40
2018-09-01T20:19:16.229Z,20.40
2018-09-01T20:21:19.293Z,20.40
2018-09-01T20:23:23.673Z,20.30
2018-09-01T20:25:26.567Z,20.30
2018-09-01T20:27:29.473Z,20.30
2018-09-01T20:29:32.356Z,20.30
2018-09-01T20:31:36.811Z,20.20
2018-09-01T20:33:40.456Z,20.20
2018-09-01T20:35:43.338Z,20.20
2018-09-01T20:37:46.270Z,20.10
2018-09-01T20:39:49.218Z,20.10
2018-09-01T20:41:52.089Z,20.10
2018-09-01T20:43:54.972Z,20.10
2018-09-01T20:45:57.964Z,20.00
2018-09-01T20:48:01.186Z,20.00
2018-09-01T20:50:05.674Z,19.90
2018-09-01T20:52:08.594Z,19.90
2018-09-01T20:54:11.528Z,19.90
2018-09-01T20:56:14.401Z,19.90
2018-09-01T20:58:17.299Z,19.90
2018-09-01T21:00:20.281Z,19.90
2018-09-01T21:02:24.707Z,19.80
2018-09-01T21:04:27.677Z,19.80
2018-09-01T21:06:30.595Z,19.80
2018-09-01T21:08:34.216Z,19.70
2018-09-01T21:10:37.237Z,19.70
2018-09-01T21:12:40.117Z,19.70
2018-09-01T21:14:43.003Z,19.70
2018-09-01T21:16:46.120Z,19.70
2018-09-01T21:18:49.681Z,19.60
2018-09-01T21:20:52.555Z,19.60
2018-09-01T21:22:55.562Z,19.60
2018-09-01T21:24:59.200Z,19.50
2018-09-01T21:27:02.076Z,19.50
2018-09-01T21:29:05.004Z,19.50
2018-09-01T21:31:07.881Z,19.50
2018-09-01T21:33:10.764Z,19.50
2018-09-01T21:35:13.667Z,19.40
2018-09-01T21:37:16.630Z,19.40
2018-09-01T21:39:19.655Z,19.40
2018-09-01T21:41:22.605Z,19.40
2018-09-01T21:43:25.490Z,19.40
2018-09-01T21:45:28.365Z,19.30
2018-09-01T21:47:32.773Z,19.30
2018-09-01T21:49:35.690Z,19.30
2018-09-01T21:51:38.517Z,19.30
2018-09-01T21:53:41.413Z,19.30
2018-09-01T21:55:44.304Z,19.20
2018-09-01T21:57:47.177Z,19.20
2018-09-01T21:59:51.700Z,19.20
2018-09-01T22:01:54.572Z,19.20
2018-09-01T22:03:57.477Z,19.20
2018-09-01T22:06:01.266Z,19.20
2018-09-01T22:08:04.254Z,19.20
2018-09-01T22:10:08.689Z,19.20
2018-09-01T22:12:11.525Z,19.10
2018-09-01T22:14:14.400Z,19.20
2018-09-01T22:16:17.276Z,19.20
2018-09-01T22:18:20.300Z,19.20
2018-09-01T22:20:23.961Z,19.10
2018-09-01T22:22:26.833Z,19.10
2018-09-01T22:24:29.829Z,19.10
2018-09-01T22:26:32.709Z,19.10
2018-09-01T22:28:35.582Z,19.10
2018-09-01T22:30:38.509Z,19.10
2018-09-01T22:32:42.149Z,19.10
2018-09-01T22:34:45.078Z,19.00
2018-09-01T22:36:49.589Z,19.00
2018-09-01T22:38:52.464Z,19.00
2018-09-01T22:40:55.344Z,18.90
2018-09-01T22:42:58.458Z,18.90
2018-09-01T22:45:01.319Z,18.90
2018-09-01T22:47:04.202Z,18.90
2018-09-01T22:49:07.085Z,18.80
2018-09-01T22:51:09.965Z,18.80
2018-09-01T22:53:12.837Z,18.80
2018-09-01T22:55:15.937Z,18.70
2018-09-01T22:57:19.590Z,18.60
2018-09-01T22:59:22.469Z,18.60
2018-09-01T23:01:25.365Z,18.60
2018-09-01T23:03:28.278Z,18.60
2018-09-01T23:05:31.261Z,18.50
2018-09-01T23:07:34.337Z,18.50
2018-09-01T23:09:37.334Z,18.40
2018-09-01T23:11:41.016Z,18.40
2018-09-01T23:13:44.004Z,18.40
2018-09-01T23:15:46.926Z,18.30
2018-09-01T23:17:49.905Z,18.30
2018-09-01T23:19:53.677Z,18.20
2018-09-01T23:21:57.337Z,18.20
2018-09-01T23:24:00.480Z,18.20
2018-09-01T23:26:04.256Z,18.10
2018-09-01T23:28:07.244Z,18.10
2018-09-01T23:30:10.117Z,18.10
2018-09-01T23:32:13.205Z,18.00
2018-09-01T23:34:16.228Z,18.00
2018-09-01T23:36:19.845Z,17.90
2018-09-01T23:38:22.835Z,17.90
2018-09-01T23:40:25.732Z,17.90
2018-09-01T23:42:28.649Z,17.80
2018-09-01T23:44:32.324Z,17.70
2018-09-01T23:46:35.205Z,17.70
2018-09-01T23:48:38.085Z,17.70
2018-09-01T23:50:41.085Z,17.70
2018-09-01T23:52:44.796Z,17.60
2018-09-01T23:54:47.665Z,17.60
2018-09-01T23:56:50.783Z,17.60
2018-09-01T23:58:54.406Z,17.60
